createdAt,value
2023-10-05T00:02:11.770Z,102340.59
2023-10-05T00:04:44.620Z,102344.00
2023-10-05T00:07:33.442Z,102348.53
2023-10-05T00:10:01.686Z,102352.09
2023-10-05T00:12:28.995Z,102349.41
2023-10-05T00:15:04.691Z,102349.41
2023-10-05T00:17:33.115Z,102342.28
2023-10-05T00:20:00.051Z,102346.72
2023-10-05T00:22:26.822Z,102350.38
2023-10-05T00:24:53.484Z,102353.06
2023-10-05T00:27:21.462Z,102352.22
2023-10-05T00:29:55.713Z,102350.25
2023-10-05T00:32:48.056Z,102345.81
2023-10-05T00:35:33.197Z,102356.59
2023-10-05T00:38:09.586Z,102348.53
2023-10-05T00:40:40.151Z,102344.13
2023-10-05T00:43:20.216Z,102347.69
2023-10-05T00:45:48.195Z,102342.28
2023-10-05T00:48:28.569Z,102339.75
2023-10-05T00:51:00.074Z,102347.81
2023-10-05T00:53:29.432Z,102343.44
2023-10-05T00:56:09.445Z,102348.81
2023-10-05T00:58:45.566Z,102343.53
2023-10-05T01:01:26.656Z,102352.47
2023-10-05T01:04:11.704Z,102347.09
2023-10-05T01:06:43.772Z,102342.84
2023-10-05T01:09:24.063Z,102350.94
2023-10-05T01:12:00.269Z,102349.09
2023-10-05T01:14:38.726Z,102339.41
2023-10-05T01:17:06.844Z,102342.00
2023-10-05T01:19:39.722Z,102334.88
2023-10-05T01:22:13.157Z,102334.03
2023-10-05T01:24:40.103Z,102335.88
2023-10-05T01:27:06.699Z,102338.56
2023-10-05T01:29:33.743Z,102339.41
2023-10-05T01:32:00.623Z,102338.56
2023-10-05T01:34:27.761Z,102337.72
2023-10-05T01:36:55.944Z,102336.88
2023-10-05T01:39:24.069Z,102336.88
2023-10-05T01:41:50.892Z,102331.47
2023-10-05T01:44:17.437Z,102335.03
2023-10-05T01:46:44.071Z,102334.19
2023-10-05T01:49:10.815Z,102332.34
2023-10-05T01:51:37.466Z,102339.56
2023-10-05T01:54:13.003Z,102334.19
2023-10-05T01:56:41.268Z,102334.19
2023-10-05T01:59:08.820Z,102331.47
2023-10-05T02:01:41.505Z,102331.47
2023-10-05T02:04:08.916Z,102335.03
2023-10-05T02:06:43.859Z,102344.97
2023-10-05T02:09:15.444Z,102343.09
2023-10-05T02:11:42.558Z,102336.88
2023-10-05T02:14:13.096Z,102335.03
2023-10-05T02:16:39.865Z,102326.09
2023-10-05T02:19:08.914Z,102338.56
2023-10-05T02:21:39.286Z,102326.94
2023-10-05T02:24:17.876Z,102328.78
2023-10-05T02:27:00.959Z,102324.41
2023-10-05T02:29:29.524Z,102323.41
2023-10-05T02:32:03.146Z,102324.41
2023-10-05T02:34:46.169Z,102315.44
2023-10-05T02:37:13.570Z,102318.13
2023-10-05T02:39:41.853Z,102310.03
2023-10-05T02:42:13.326Z,102318.13
2023-10-05T02:44:40.920Z,102314.56
2023-10-05T02:47:11.770Z,102318.13
2023-10-05T02:49:44.339Z,102311.03
2023-10-05T02:52:15.193Z,102320.97
2023-10-05T02:54:41.870Z,102320.97
2023-10-05T02:57:09.127Z,102308.50
2023-10-05T02:59:36.664Z,102323.81
2023-10-05T03:02:08.159Z,102318.41
2023-10-05T03:04:53.829Z,102320.25
2023-10-05T03:07:20.609Z,102321.22
2023-10-05T03:09:48.839Z,102323.06
2023-10-05T03:12:15.813Z,102320.38
2023-10-05T03:14:46.042Z,102322.22
2023-10-05T03:17:20.194Z,102319.53
2023-10-05T03:19:46.928Z,102312.44
2023-10-05T03:22:13.909Z,102314.13
2023-10-05T03:24:48.337Z,102317.84
2023-10-05T03:27:15.850Z,102316.97
2023-10-05T03:29:46.764Z,102309.88
2023-10-05T03:32:14.057Z,102312.56
2023-10-05T03:34:44.187Z,102308.16
2023-10-05T03:37:16.834Z,102317.25
2023-10-05T03:40:01.976Z,102318.25
2023-10-05T03:42:28.633Z,102324.59
2023-10-05T03:45:04.200Z,102310.28
2023-10-05T03:47:32.329Z,102322.06
2023-10-05T03:49:59.058Z,102311.28
2023-10-05T03:52:33.974Z,102308.56
2023-10-05T03:55:02.750Z,102308.56
2023-10-05T03:57:32.683Z,102307.72
2023-10-05T04:00:01.525Z,102312.28
2023-10-05T04:02:30.035Z,102315.81
2023-10-05T04:04:57.121Z,102318.50
2023-10-05T04:07:23.745Z,102317.66
2023-10-05T04:09:50.278Z,102320.34
2023-10-05T04:12:17.000Z,102308.72
2023-10-05T04:14:43.696Z,102313.25
2023-10-05T04:17:12.626Z,102313.25
2023-10-05T04:19:43.127Z,102316.94
2023-10-05T04:22:09.852Z,102318.78
2023-10-05T04:24:37.035Z,102319.75
2023-10-05T04:27:05.864Z,102320.63
2023-10-05T04:29:32.523Z,102317.06
2023-10-05T04:31:59.715Z,102326.16
2023-10-05T04:34:29.957Z,102316.22
2023-10-05T04:36:56.736Z,102323.47
2023-10-05T04:39:30.075Z,102317.22
2023-10-05T04:41:58.115Z,102318.06
2023-10-05T04:44:25.014Z,102326.25
2023-10-05T04:46:52.923Z,102318.06
2023-10-05T04:49:25.558Z,102315.50
2023-10-05T04:51:58.024Z,102305.56
2023-10-05T04:54:27.254Z,102313.66
2023-10-05T04:56:53.810Z,102315.50
2023-10-05T04:59:38.406Z,102319.91
2023-10-05T05:02:22.296Z,102322.72
2023-10-05T05:04:51.709Z,102324.56
2023-10-05T05:07:22.261Z,102327.00
2023-10-05T05:09:51.817Z,102326.25
2023-10-05T05:12:18.995Z,102329.97
2023-10-05T05:14:47.682Z,102328.97
2023-10-05T05:17:24.989Z,102331.81
2023-10-05T05:19:54.788Z,102333.66
2023-10-05T05:22:21.520Z,102333.66
2023-10-05T05:24:48.365Z,102332.78
2023-10-05T05:27:17.760Z,102338.19
2023-10-05T05:29:45.466Z,102342.72
2023-10-05T05:32:12.914Z,102343.56
2023-10-05T05:34:42.709Z,102348.13
2023-10-05T05:37:15.013Z,102349.06
2023-10-05T05:39:41.802Z,102350.91
2023-10-05T05:42:14.387Z,102349.06
2023-10-05T05:44:42.101Z,102346.38
2023-10-05T05:47:11.401Z,102343.84
2023-10-05T05:49:41.680Z,102352.91
2023-10-05T05:52:15.418Z,102347.53
2023-10-05T05:54:42.752Z,102354.88
2023-10-05T05:57:12.901Z,102362.69
2023-10-05T05:59:40.815Z,102369.06
2023-10-05T06:02:09.346Z,102353.88
2023-10-05T06:04:36.730Z,102360.25
2023-10-05T06:07:12.960Z,102367.50
2023-10-05T06:09:46.735Z,102362.25
2023-10-05T06:12:13.897Z,102358.81
2023-10-05T06:14:41.701Z,102357.56
2023-10-05T06:17:09.109Z,102361.25
2023-10-05T06:19:39.228Z,102362.09
2023-10-05T06:22:08.812Z,102369.44
2023-10-05T06:24:38.867Z,102374.81
2023-10-05T06:27:07.151Z,102374.81
2023-10-05T06:29:35.099Z,102376.56
2023-10-05T06:32:02.018Z,102382.91
2023-10-05T06:34:28.790Z,102390.03
2023-10-05T06:36:55.528Z,102383.78
2023-10-05T06:39:28.187Z,102387.34
2023-10-05T06:41:55.224Z,102394.41
2023-10-05T06:44:21.803Z,102389.03
2023-10-05T06:46:49.592Z,102394.41
2023-10-05T06:49:17.433Z,102406.91
2023-10-05T06:51:47.245Z,102397.13
2023-10-05T06:54:15.596Z,102397.97
2023-10-05T06:56:42.963Z,102403.34
2023-10-05T06:59:10.912Z,102406.03
2023-10-05T07:01:37.627Z,102412.28
2023-10-05T07:04:09.198Z,102420.38
2023-10-05T07:06:36.917Z,102425.63
2023-10-05T07:09:04.027Z,102432.84
2023-10-05T07:11:31.768Z,102437.25
2023-10-05T07:13:58.668Z,102438.22
2023-10-05T07:16:25.759Z,102440.91
2023-10-05T07:18:52.770Z,102440.91
2023-10-05T07:21:19.542Z,102441.81
2023-10-05T07:23:48.551Z,102450.75
2023-10-05T07:26:15.196Z,102449.88
2023-10-05T07:28:42.468Z,102448.88
2023-10-05T07:31:10.374Z,102456.81
2023-10-05T07:33:37.352Z,102460.38
2023-10-05T07:36:04.408Z,102460.38
2023-10-05T07:38:31.000Z,102452.28
2023-10-05T07:40:57.910Z,102462.97
2023-10-05T07:43:25.096Z,102456.56
2023-10-05T07:45:51.831Z,102461.81
2023-10-05T07:48:20.720Z,102464.50
2023-10-05T07:50:51.161Z,102467.22
2023-10-05T07:53:18.016Z,102462.69
2023-10-05T07:55:44.614Z,102464.41
2023-10-05T07:58:11.278Z,102471.50
2023-10-05T08:00:38.137Z,102477.72
2023-10-05T08:03:06.538Z,102472.22
2023-10-05T08:05:33.784Z,102477.63
2023-10-05T08:08:00.740Z,102480.16
2023-10-05T08:10:27.455Z,102476.63
2023-10-05T08:12:54.467Z,102478.31
2023-10-05T08:15:21.480Z,102484.56
2023-10-05T08:17:50.430Z,102489.84
2023-10-05T08:20:25.671Z,102492.53
2023-10-05T08:22:57.537Z,102489.69
2023-10-05T08:25:24.573Z,102484.31
2023-10-05T08:27:52.910Z,102489.56
2023-10-05T08:30:19.676Z,102487.72
2023-10-05T08:32:49.437Z,102488.59
2023-10-05T08:35:20.067Z,102489.31
2023-10-05T08:37:54.118Z,102492.72
2023-10-05T08:40:32.777Z,102498.97
2023-10-05T08:43:09.828Z,102504.06
2023-10-05T08:45:48.778Z,102504.97
2023-10-05T08:48:36.527Z,102509.47
2023-10-05T08:51:11.836Z,102508.50
2023-10-05T08:53:44.863Z,102518.28
2023-10-05T08:56:16.611Z,102518.28
2023-10-05T08:58:48.207Z,102528.06
2023-10-05T09:01:34.364Z,102537.16
2023-10-05T09:04:13.205Z,102537.88
2023-10-05T09:06:50.182Z,102550.50
2023-10-05T09:09:28.062Z,102558.47
2023-10-05T09:11:57.693Z,102566.53
2023-10-05T09:14:39.373Z,102561.16
2023-10-05T09:17:09.033Z,102564.72
2023-10-05T09:19:36.519Z,102570.09
2023-10-05T09:22:12.288Z,102563.72
2023-10-05T09:24:44.266Z,102559.16
2023-10-05T09:27:14.284Z,102570.81
2023-10-05T09:29:42.497Z,102562.72
2023-10-05T09:32:27.113Z,102564.72
2023-10-05T09:34:57.856Z,102562.72
2023-10-05T09:37:28.630Z,102558.22
2023-10-05T09:40:02.327Z,102559.06
2023-10-05T09:42:29.998Z,102561.63
2023-10-05T09:45:08.074Z,102560.75
2023-10-05T09:47:37.021Z,102559.78
2023-10-05T09:50:11.371Z,102567.84
2023-10-05T09:52:39.445Z,102574.09
2023-10-05T09:55:07.918Z,102570.44
2023-10-05T09:57:43.132Z,102572.13
2023-10-05T10:00:31.648Z,102572.00
2023-10-05T10:03:00.430Z,102568.31
2023-10-05T10:05:37.199Z,102575.44
2023-10-05T10:08:24.395Z,102570.03
2023-10-05T10:11:10.148Z,102575.28
2023-10-05T10:13:40.744Z,102566.09
2023-10-05T10:16:24.411Z,102583.97
2023-10-05T10:19:20.263Z,102573.91
2023-10-05T10:22:15.403Z,102564.69
2023-10-05T10:24:44.718Z,102574.50
2023-10-05T10:27:16.542Z,102576.09
2023-10-05T10:29:47.350Z,102574.25
2023-10-05T10:32:21.550Z,102573.13
2023-10-05T10:34:53.659Z,102569.44
2023-10-05T10:37:45.684Z,102560.34
2023-10-05T10:40:19.054Z,102562.66
2023-10-05T10:43:08.833Z,102566.94
2023-10-05T10:45:43.587Z,102566.66
2023-10-05T10:48:21.834Z,102561.97
2023-10-05T10:50:54.266Z,102562.72
2023-10-05T10:53:27.114Z,102560.75
2023-10-05T10:56:06.487Z,102563.34
2023-10-05T10:58:34.492Z,102570.28
2023-10-05T11:01:26.312Z,102574.72
2023-10-05T11:04:01.918Z,102570.03
2023-10-05T11:06:29.278Z,102579.81
2023-10-05T11:09:00.656Z,102580.56
2023-10-05T11:11:27.506Z,102576.88
2023-10-05T11:13:57.743Z,102577.59
2023-10-05T11:16:57.483Z,102579.31
2023-10-05T11:19:32.905Z,102579.03
2023-10-05T11:22:06.262Z,102575.34
2023-10-05T11:24:37.831Z,102562.72
2023-10-05T11:27:04.448Z,102563.31
2023-10-05T11:29:36.502Z,102561.44
2023-10-05T11:32:31.978Z,102559.59
2023-10-05T11:35:17.433Z,102562.31
2023-10-05T11:38:00.297Z,102565.72
2023-10-05T11:40:42.884Z,102565.72
2023-10-05T11:43:14.627Z,102563.88
2023-10-05T11:46:25.557Z,102563.03
2023-10-05T11:48:56.187Z,102563.75
2023-10-05T11:51:43.418Z,102570.84
2023-10-05T11:54:11.260Z,102569.03
2023-10-05T11:56:39.955Z,102561.78
2023-10-05T11:59:08.664Z,102568.03
2023-10-05T12:01:35.834Z,102571.56
2023-10-05T12:04:05.512Z,102575.97
2023-10-05T12:06:32.709Z,102575.13
2023-10-05T12:09:08.642Z,102574.13
2023-10-05T12:11:36.446Z,102569.56
2023-10-05T12:14:05.743Z,102570.47
2023-10-05T12:16:39.759Z,102571.31
2023-10-05T12:19:16.158Z,102574.00
2023-10-05T12:21:44.374Z,102574.84
2023-10-05T12:24:13.952Z,102569.47
2023-10-05T12:26:41.038Z,102562.22
2023-10-05T12:29:14.127Z,102569.31
2023-10-05T12:31:51.276Z,102560.22
2023-10-05T12:34:29.481Z,102551.16
2023-10-05T12:36:57.007Z,102546.47
2023-10-05T12:39:30.699Z,102549.88
2023-10-05T12:41:57.739Z,102548.75
2023-10-05T12:44:24.962Z,102550.47
2023-10-05T12:46:51.840Z,102558.41
2023-10-05T12:49:18.736Z,102555.56
2023-10-05T12:51:48.434Z,102561.81
2023-10-05T12:54:29.533Z,102544.50
2023-10-05T12:57:13.615Z,102555.31
2023-10-05T12:59:44.362Z,102557.00
2023-10-05T13:02:17.513Z,102563.00
2023-10-05T13:04:44.473Z,102562.13
2023-10-05T13:07:11.212Z,102559.16
2023-10-05T13:09:39.484Z,102561.88
2023-10-05T13:12:13.432Z,102561.03
2023-10-05T13:14:40.888Z,102568.28
2023-10-05T13:17:13.344Z,102564.72
2023-10-05T13:19:40.818Z,102566.41
2023-10-05T13:22:07.725Z,102560.16
2023-10-05T13:24:35.306Z,102561.03
2023-10-05T13:27:02.705Z,102554.78
2023-10-05T13:29:29.622Z,102559.16
2023-10-05T13:31:57.443Z,102558.16
2023-10-05T13:34:28.912Z,102555.47
2023-10-05T13:36:55.953Z,102556.31
2023-10-05T13:39:22.799Z,102551.66
2023-10-05T13:42:01.502Z,102551.66
2023-10-05T13:44:29.055Z,102546.25
2023-10-05T13:46:57.075Z,102549.66
2023-10-05T13:49:28.073Z,102547.81
2023-10-05T13:51:54.708Z,102544.97
2023-10-05T13:54:22.661Z,102546.84
2023-10-05T13:56:50.266Z,102549.38
2023-10-05T13:59:22.483Z,102549.38
2023-10-05T14:01:54.191Z,102539.44
2023-10-05T14:04:22.100Z,102545.56
2023-10-05T14:06:50.397Z,102543.84
2023-10-05T14:09:17.705Z,102555.50
2023-10-05T14:11:44.702Z,102545.41
2023-10-05T14:14:12.505Z,102555.38
2023-10-05T14:16:50.480Z,102552.50
2023-10-05T14:19:23.456Z,102556.06
2023-10-05T14:21:51.753Z,102552.41
2023-10-05T14:24:19.738Z,102557.78
2023-10-05T14:26:49.247Z,102550.53
2023-10-05T14:29:18.305Z,102555.94
2023-10-05T14:31:45.888Z,102550.53
2023-10-05T14:34:14.508Z,102554.94
2023-10-05T14:36:41.244Z,102553.25
2023-10-05T14:39:19.320Z,102550.53
2023-10-05T14:41:46.191Z,102547.84
2023-10-05T14:44:12.856Z,102547.84
2023-10-05T14:46:40.302Z,102545.16
2023-10-05T14:49:08.814Z,102554.25
2023-10-05T14:51:35.916Z,102560.50
2023-10-05T14:54:02.530Z,102547.00
2023-10-05T14:56:29.126Z,102553.25
2023-10-05T14:58:55.678Z,102556.94
2023-10-05T15:01:22.372Z,102545.16
2023-10-05T15:03:49.088Z,102547.84
2023-10-05T15:06:16.198Z,102538.03
2023-10-05T15:08:42.929Z,102543.44
2023-10-05T15:11:10.312Z,102537.16
2023-10-05T15:13:38.590Z,102534.63
2023-10-05T15:16:06.888Z,102537.31
2023-10-05T15:18:36.174Z,102538.31
2023-10-05T15:21:03.698Z,102542.88
2023-10-05T15:23:30.229Z,102548.25
2023-10-05T15:25:58.096Z,102537.47
2023-10-05T15:28:24.888Z,102540.16
2023-10-05T15:30:51.539Z,102543.72
2023-10-05T15:33:18.229Z,102544.72
2023-10-05T15:35:44.765Z,102538.31
2023-10-05T15:38:11.354Z,102543.72
2023-10-05T15:40:38.889Z,102535.63
2023-10-05T15:43:05.806Z,102539.16
2023-10-05T15:45:34.854Z,102530.22
2023-10-05T15:48:09.859Z,102539.16
2023-10-05T15:50:44.668Z,102543.72
2023-10-05T15:53:11.291Z,102542.72
2023-10-05T15:55:37.937Z,102539.16
2023-10-05T15:58:07.849Z,102542.00
2023-10-05T16:00:35.933Z,102539.31
2023-10-05T16:03:06.766Z,102534.88
2023-10-05T16:05:41.233Z,102534.88
2023-10-05T16:08:08.684Z,102543.13
2023-10-05T16:10:39.899Z,102545.97
2023-10-05T16:13:10.589Z,102544.97
2023-10-05T16:15:39.806Z,102544.13
2023-10-05T16:18:09.138Z,102545.97
2023-10-05T16:20:38.438Z,102547.97
2023-10-05T16:23:07.678Z,102556.19
2023-10-05T16:25:37.055Z,102563.44
2023-10-05T16:28:05.512Z,102560.75
2023-10-05T16:30:32.100Z,102560.88
2023-10-05T16:33:02.884Z,102560.16
2023-10-05T16:35:29.683Z,102561.03
2023-10-05T16:37:57.380Z,102565.56
2023-10-05T16:40:27.044Z,102556.75
2023-10-05T16:42:54.129Z,102554.88
2023-10-05T16:45:21.982Z,102559.59
2023-10-05T16:47:51.115Z,102564.25
2023-10-05T16:50:21.895Z,102556.31
2023-10-05T16:52:50.515Z,102551.91
2023-10-05T16:55:21.143Z,102562.81
2023-10-05T16:57:50.429Z,102560.28
2023-10-05T17:00:18.530Z,102559.41
2023-10-05T17:02:46.148Z,102556.13
2023-10-05T17:05:24.375Z,102548.31
2023-10-05T17:07:52.684Z,102565.22
2023-10-05T17:10:20.023Z,102561.09
2023-10-05T17:12:48.210Z,102559.25
2023-10-05T17:15:18.629Z,102559.38
2023-10-05T17:17:45.474Z,102564.91
2023-10-05T17:20:12.453Z,102560.63
2023-10-05T17:22:40.110Z,102563.31
2023-10-05T17:25:08.832Z,102558.94
2023-10-05T17:27:35.800Z,102561.78
2023-10-05T17:30:02.398Z,102558.34
2023-10-05T17:32:31.230Z,102552.25
2023-10-05T17:34:58.147Z,102556.78
2023-10-05T17:37:28.984Z,102561.44
2023-10-05T17:39:58.614Z,102564.31
2023-10-05T17:42:26.247Z,102567.97
2023-10-05T17:44:53.557Z,102566.25
2023-10-05T17:47:22.276Z,102562.72
2023-10-05T17:49:49.156Z,102557.47
2023-10-05T17:52:15.812Z,102560.28
2023-10-05T17:54:43.571Z,102550.47
2023-10-05T17:57:11.833Z,102561.41
2023-10-05T17:59:39.039Z,102564.13
2023-10-05T18:02:08.511Z,102561.53
2023-10-05T18:04:35.407Z,102555.28
2023-10-05T18:07:07.250Z,102562.53
2023-10-05T18:09:36.172Z,102563.53
2023-10-05T18:12:02.903Z,102560.94
2023-10-05T18:14:29.528Z,102576.44
2023-10-05T18:16:56.338Z,102579.13
2023-10-05T18:19:23.501Z,102577.41
2023-10-05T18:21:50.158Z,102581.09
2023-10-05T18:24:16.864Z,102590.16
2023-10-05T18:26:44.958Z,102600.97
2023-10-05T18:29:13.749Z,102602.81
2023-10-05T18:31:40.677Z,102598.41
2023-10-05T18:34:07.445Z,102599.38
2023-10-05T18:36:34.085Z,102597.56
2023-10-05T18:39:00.817Z,102599.38
2023-10-05T18:41:27.601Z,102600.38
2023-10-05T18:43:56.750Z,102605.75
2023-10-05T18:46:23.561Z,102606.63
2023-10-05T18:48:51.735Z,102603.06
2023-10-05T18:51:18.473Z,102604.06
2023-10-05T18:53:45.183Z,102606.88
2023-10-05T18:56:12.786Z,102600.59
2023-10-05T18:58:39.858Z,102598.78
2023-10-05T19:01:07.371Z,102598.78
2023-10-05T19:03:39.081Z,102595.19
2023-10-05T19:06:08.152Z,102599.03
2023-10-05T19:08:34.914Z,102599.63
2023-10-05T19:11:03.316Z,102597.91
2023-10-05T19:13:29.951Z,102600.75
2023-10-05T19:15:56.741Z,102593.66
2023-10-05T19:18:23.306Z,102606.28
2023-10-05T19:20:51.266Z,102600.16
2023-10-05T19:23:19.802Z,102593.91
2023-10-05T19:25:46.433Z,102597.59
2023-10-05T19:28:13.100Z,102590.47
2023-10-05T19:30:40.342Z,102590.59
2023-10-05T19:33:07.007Z,102596.16
2023-10-05T19:35:33.847Z,102603.25
2023-10-05T19:38:00.873Z,102602.50
2023-10-05T19:40:27.942Z,102598.09
2023-10-05T19:42:56.035Z,102593.72
2023-10-05T19:45:23.182Z,102598.25
2023-10-05T19:47:50.126Z,102588.47
2023-10-05T19:50:16.870Z,102593.84
2023-10-05T19:52:43.541Z,102599.34
2023-10-05T19:55:12.202Z,102597.66
2023-10-05T19:57:38.947Z,102590.41
2023-10-05T20:00:12.162Z,102580.63
2023-10-05T20:02:40.550Z,102598.66
2023-10-05T20:05:07.805Z,102598.66
2023-10-05T20:07:34.636Z,102593.25
2023-10-05T20:10:01.533Z,102594.22
2023-10-05T20:12:29.139Z,102590.66
2023-10-05T20:14:55.834Z,102580.72
2023-10-05T20:17:22.558Z,102577.34
2023-10-05T20:19:49.410Z,102581.88
2023-10-05T20:22:16.087Z,102578.19
2023-10-05T20:24:42.886Z,102571.94
2023-10-05T20:27:16.509Z,102570.25
2023-10-05T20:29:44.054Z,102564.84
2023-10-05T20:32:11.608Z,102558.59
2023-10-05T20:34:38.356Z,102565.81
2023-10-05T20:37:05.134Z,102570.34
2023-10-05T20:39:31.713Z,102579.28
2023-10-05T20:41:58.693Z,102580.28
2023-10-05T20:44:28.390Z,102578.44
2023-10-05T20:47:00.836Z,102590.06
2023-10-05T20:49:28.983Z,102591.06
2023-10-05T20:51:55.543Z,102592.91
2023-10-05T20:54:22.135Z,102598.31
2023-10-05T20:56:48.674Z,102599.16
2023-10-05T20:59:15.226Z,102592.91
2023-10-05T21:01:41.890Z,102588.38
2023-10-05T21:04:08.922Z,102579.44
2023-10-05T21:06:36.679Z,102578.59
2023-10-05T21:09:05.294Z,102571.50
2023-10-05T21:11:34.317Z,102582.28
2023-10-05T21:14:01.761Z,102574.19
2023-10-05T21:16:28.795Z,102565.09
2023-10-05T21:18:56.195Z,102569.66
2023-10-05T21:21:23.026Z,102580.53
2023-10-05T21:23:49.581Z,102577.84
2023-10-05T21:26:16.981Z,102567.06
2023-10-05T21:28:44.635Z,102577.84
2023-10-05T21:31:11.320Z,102575.28
2023-10-05T21:33:37.934Z,102575.28
2023-10-05T21:36:07.429Z,102576.28
2023-10-05T21:38:34.301Z,102571.88
2023-10-05T21:41:01.840Z,102559.38
2023-10-05T21:43:28.956Z,102560.22
2023-10-05T21:45:55.714Z,102551.28
2023-10-05T21:48:22.409Z,102559.50
2023-10-05T21:50:49.871Z,102550.56
2023-10-05T21:53:19.240Z,102543.34
2023-10-05T21:55:45.833Z,102547.88
2023-10-05T21:58:12.703Z,102546.19
2023-10-05T22:00:41.828Z,102548.88
2023-10-05T22:03:10.434Z,102557.91
2023-10-05T22:05:38.463Z,102550.69
2023-10-05T22:08:08.079Z,102545.28
2023-10-05T22:10:39.920Z,102552.53
2023-10-05T22:13:11.169Z,102548.00
2023-10-05T22:15:39.742Z,102555.22
2023-10-05T22:18:07.001Z,102560.75
2023-10-05T22:20:34.020Z,102562.47
2023-10-05T22:23:01.120Z,102558.06
2023-10-05T22:25:29.070Z,102545.59
2023-10-05T22:27:55.748Z,102553.66
2023-10-05T22:30:22.472Z,102560.03
2023-10-05T22:32:49.121Z,102560.03
2023-10-05T22:35:15.678Z,102564.72
2023-10-05T22:37:42.262Z,102569.25
2023-10-05T22:40:09.819Z,102570.09
2023-10-05T22:42:36.453Z,102564.81
2023-10-05T22:45:04.033Z,102566.66
2023-10-05T22:47:30.666Z,102560.41
2023-10-05T22:49:59.379Z,102558.72
2023-10-05T22:52:27.005Z,102555.03
2023-10-05T22:54:56.202Z,102559.56
2023-10-05T22:57:23.207Z,102564.97
2023-10-05T22:59:50.565Z,102557.00
2023-10-05T23:02:17.438Z,102553.31
2023-10-05T23:04:44.363Z,102551.63
2023-10-05T23:07:13.715Z,102550.78
2023-10-05T23:09:40.639Z,102546.34
2023-10-05T23:12:13.573Z,102543.66
2023-10-05T23:14:41.773Z,102545.50
2023-10-05T23:17:08.595Z,102536.56
2023-10-05T23:19:36.960Z,102542.94
2023-10-05T23:22:05.775Z,102545.75
2023-10-05T23:24:35.554Z,102544.78
2023-10-05T23:27:05.248Z,102529.59
2023-10-05T23:29:32.918Z,102529.72
2023-10-05T23:32:00.331Z,102536.94
2023-10-05T23:34:39.341Z,102540.50
2023-10-05T23:37:09.571Z,102536.09
2023-10-05T23:39:36.637Z,102533.41
2023-10-05T23:42:12.085Z,102514.53
2023-10-05T23:44:40.079Z,102520.94
2023-10-05T23:47:24.093Z,102527.28
2023-10-05T23:49:53.822Z,102526.31
2023-10-05T23:52:20.839Z,102519.34
2023-10-05T23:54:47.420Z,102522.88
2023-10-05T23:57:21.672Z,102523.03
2023-10-05T23:59:49.637Z,102525.72
